Time;durP1;ratioP1;P1;durP2;ratioP2;P2;SDS_P1;SDS_P2;PMS_P1;PMS_P2;Temp;Humidity;BMP_temperature;BMP_pressure;BME280_temperature;BME280_humidity;BME280_pressure;Samples;Min_cycle;Max_cycle;Signal;HPM_P1;HPM_P2
2022/08/22 00:00:12;;;;;;;13.60;2.67;;;;;;;25.08;45.88;101709.34;5013961;28;20409;-74
2022/08/22 00:03:02;;;;;;;7.43;3.00;;;;;;;24.97;46.64;101707.84;4991434;28;20034;-75
2022/08/22 00:05:36;;;;;;;13.95;2.63;;;;;;;24.88;46.40;101707.75;4991278;28;20035;-74
2022/08/22 00:08:13;;;;;;;10.70;3.60;;;;;;;24.95;46.28;101710.09;4973767;28;20034;-74
2022/08/22 00:10:55;;;;;;;8.57;3.15;;;;;;;24.95;46.40;101710.09;4992455;28;20053;-73
2022/08/22 00:13:27;;;;;;;12.32;2.90;;;;;;;24.89;46.57;101714.84;5015224;28;20030;-74
2022/08/22 00:16:10;;;;;;;11.90;3.55;;;;;;;24.77;47.03;101709.00;5002066;28;20088;-73
2022/08/22 00:18:49;;;;;;;10.65;2.80;;;;;;;24.80;47.23;101708.41;5023426;28;20037;-74
2022/08/22 00:21:28;;;;;;;13.55;3.13;;;;;;;24.83;46.77;101713.31;5024075;28;20034;-76
2022/08/22 00:24:19;;;;;;;8.65;2.70;;;;;;;24.78;46.99;101713.41;5023575;28;20042;-74
2022/08/22 00:27:16;;;;;;;11.48;3.42;;;;;;;24.84;46.98;101714.94;4946004;29;20047;-73
2022/08/22 00:29:45;;;;;;;11.90;2.38;;;;;;;24.79;47.23;101714.19;4944885;29;20066;-75
2022/08/22 00:32:28;;;;;;;11.73;3.20;;;;;;;24.90;46.87;101718.44;4944888;29;20043;-75
2022/08/22 00:35:02;;;;;;;10.90;2.85;;;;;;;24.75;47.02;101713.16;4943453;29;20067;-74
2022/08/22 00:38:07;;;;;;;11.23;2.92;;;;;;;24.79;47.11;101715.00;4941939;29;20125;-75
2022/08/22 00:41:03;;;;;;;16.67;3.42;;;;;;;24.81;47.28;101715.53;4866314;29;20085;-74
2022/08/22 00:43:53;;;;;;;10.05;2.70;;;;;;;24.78;47.08;101715.31;4867963;29;20074;-74
2022/08/22 00:46:29;;;;;;;10.70;2.97;;;;;;;24.86;46.81;101714.66;4868001;29;20072;-75
2022/08/22 00:49:09;;;;;;;9.10;4.15;;;;;;;24.81;47.00;101714.72;4875244;29;20178;-75
2022/08/22 00:51:53;;;;;;;10.90;3.38;;;;;;;24.86;47.09;101715.47;4878068;29;20029;-74
2022/08/22 00:54:44;;;;;;;8.32;2.80;;;;;;;24.86;46.88;101718.22;4877411;29;20064;-74
2022/08/22 00:57:18;;;;;;;10.85;4.10;;;;;;;24.83;46.71;101718.81;4877250;29;20041;-74
2022/08/22 00:59:55;;;;;;;11.60;3.60;;;;;;;24.79;47.60;101714.19;4877838;29;20112;-75
2022/08/22 01:02:53;;;;;;;11.35;3.03;;;;;;;24.65;47.83;101724.31;4877412;29;20045;-75
2022/08/22 01:05:46;;;;;;;10.93;3.70;;;;;;;24.51;48.38;101726.94;4933994;29;20545;-75
2022/08/22 01:08:26;;;;;;;8.07;3.08;;;;;;;24.67;47.81;101727.56;4926914;29;20594;-75
2022/08/22 01:11:28;;;;;;;9.05;3.05;;;;;;;24.69;48.20;101719.81;4934050;29;20130;-76
2022/08/22 01:14:46;;;;;;;10.20;3.63;;;;;;;24.63;48.47;101727.31;4934020;29;20124;-68
2022/08/22 01:17:20;;;;;;;13.13;3.75;;;;;;;24.67;47.88;101731.13;4859822;29;20040;-68
2022/08/22 01:19:57;;;;;;;11.93;3.88;;;;;;;24.60;48.01;101727.94;4895834;29;20457;-69
2022/08/22 01:22:51;;;;;;;13.75;3.70;;;;;;;24.60;48.60;101729.84;4895863;29;20037;-67
2022/08/22 01:25:22;;;;;;;10.73;3.63;;;;;;;24.54;48.63;101728.28;4895938;29;20115;-69
2022/08/22 01:28:25;;;;;;;12.48;3.63;;;;;;;24.60;48.30;101733.44;4895258;29;20493;-69
2022/08/22 01:31:27;;;;;;;8.93;3.58;;;;;;;24.58;48.40;101729.34;4912805;29;20078;-68
2022/08/22 01:34:05;;;;;;;13.18;3.72;;;;;;;24.52;48.86;101731.34;4895567;29;20052;-68
2022/08/22 01:36:52;;;;;;;14.40;4.22;;;;;;;24.45;48.92;101733.66;4895935;29;20067;-75
2022/08/22 01:39:45;;;;;;;12.48;4.10;;;;;;;24.39;49.27;101735.63;4896046;29;20553;-74
2022/08/22 01:42:41;;;;;;;10.52;3.70;;;;;;;24.40;48.99;101731.78;4887773;29;20068;-74
2022/08/22 01:45:29;;;;;;;13.15;3.63;;;;;;;24.51;48.99;101732.44;4895595;29;20048;-75
2022/08/22 01:48:03;;;;;;;9.18;3.83;;;;;;;24.50;49.03;101730.00;4858369;29;20060;-73
2022/08/22 01:50:49;;;;;;;8.23;3.42;;;;;;;24.57;49.03;101730.47;4858111;29;20045;-74
2022/08/22 01:53:28;;;;;;;14.32;4.25;;;;;;;24.50;49.07;101735.50;4887888;29;20104;-74
2022/08/22 01:56:04;;;;;;;18.45;4.53;;;;;;;24.54;49.11;101736.53;4895455;29;20049;-73
2022/08/22 01:58:34;;;;;;;14.40;4.38;;;;;;;24.49;49.17;101733.88;4895317;29;20520;-74
2022/08/22 02:01:12;;;;;;;10.88;3.63;;;;;;;24.57;49.32;101735.97;4911271;29;20040;-74
2022/08/22 02:03:55;;;;;;;12.15;3.95;;;;;;;24.54;49.46;101736.53;4895371;29;20103;-74
2022/08/22 02:06:31;;;;;;;7.10;4.05;;;;;;;24.63;49.14;101735.56;4895173;29;20045;-74
2022/08/22 02:09:07;;;;;;;10.23;4.72;;;;;;;24.45;49.42;101732.81;4894987;29;20044;-74
2022/08/22 02:11:35;;;;;;;10.05;4.40;;;;;;;24.59;49.39;101731.78;4894981;29;20068;-74
2022/08/22 02:14:31;;;;;;;11.85;4.00;;;;;;;24.50;49.57;101728.06;4894916;29;20400;-74
2022/08/22 02:17:08;;;;;;;12.40;4.28;;;;;;;24.59;49.17;101739.22;4894591;29;20583;-74
2022/08/22 02:19:43;;;;;;;11.18;4.28;;;;;;;24.59;49.21;101737.28;4894804;29;20040;-74
2022/08/22 02:22:27;;;;;;;11.98;3.72;;;;;;;24.54;50.08;101728.28;4895390;29;20126;-73
2022/08/22 02:25:21;;;;;;;11.57;4.15;;;;;;;24.73;49.57;101723.63;4938413;28;20446;-74
2022/08/22 02:28:12;;;;;;;10.88;3.92;;;;;;;24.71;49.62;101728.56;5013238;28;20038;-75
2022/08/22 02:30:50;;;;;;;12.32;3.95;;;;;;;24.68;49.62;101732.75;5012546;28;20076;-74
2022/08/22 02:33:33;;;;;;;13.02;4.40;;;;;;;24.66;49.76;101729.50;5012695;28;20406;-75
2022/08/22 02:36:08;;;;;;;13.13;4.05;;;;;;;24.70;49.65;101727.78;5001613;28;20053;-75
2022/08/22 02:38:33;;;;;;;14.80;4.50;;;;;;;24.79;49.18;101719.69;4992751;28;20463;-73
2022/08/22 02:41:22;;;;;;;15.90;4.15;;;;;;;24.76;49.81;101718.38;4991626;28;20129;-73
2022/08/22 02:43:54;;;;;;;11.80;4.25;;;;;;;24.70;49.61;101708.53;4992465;28;20034;-74
2022/08/22 02:46:27;;;;;;;12.77;4.45;;;;;;;24.63;49.50;101710.81;4992505;28;20092;-75
2022/08/22 02:49:03;;;;;;;8.88;4.07;;;;;;;24.67;49.42;101709.13;4993187;28;20122;-75
2022/08/22 02:52:08;;;;;;;12.98;4.55;;;;;;;24.69;49.71;101714.31;4992134;28;20038;-75
2022/08/22 02:54:55;;;;;;;15.73;4.88;;;;;;;24.61;50.13;101718.56;4992298;28;20046;-74
2022/08/22 02:57:32;;;;;;;12.82;4.65;;;;;;;24.74;49.52;101715.09;4992141;28;20038;-74
2022/08/22 03:00:14;;;;;;;12.85;4.20;;;;;;;24.66;49.97;101714.91;4992110;28;20039;-73
2022/08/22 03:02:55;;;;;;;15.13;4.70;;;;;;;24.66;50.29;101710.25;4992225;28;20034;-74
2022/08/22 03:05:35;;;;;;;9.55;5.00;;;;;;;24.62;49.78;101714.72;4991964;28;20519;-73
2022/08/22 03:08:21;;;;;;;16.35;5.45;;;;;;;24.47;50.41;101714.13;4992167;28;20121;-74
2022/08/22 03:10:53;;;;;;;17.65;4.50;;;;;;;24.49;50.39;101709.13;4991848;28;20439;-75
2022/08/22 03:13:32;;;;;;;18.15;4.72;;;;;;;24.47;50.44;101714.13;4991243;28;20285;-74
2022/08/22 03:16:05;;;;;;;13.20;5.03;;;;;;;24.48;50.69;101723.97;4997993;28;20117;-74
2022/08/22 03:18:43;;;;;;;15.00;5.13;;;;;;;24.60;50.38;101722.44;5011721;28;20037;-67
2022/08/22 03:21:17;;;;;;;10.82;4.82;;;;;;;24.60;50.53;101710.63;4995465;28;20050;-68
2022/08/22 03:24:01;;;;;;;13.95;5.28;;;;;;;24.61;50.27;101706.75;4996116;28;20074;-67
2022/08/22 03:26:43;;;;;;;13.20;5.38;;;;;;;24.62;50.36;101706.47;5011327;28;20116;-68
2022/08/22 03:29:18;;;;;;;12.10;5.78;;;;;;;24.64;50.27;101709.72;5011518;28;20077;-67
2022/08/22 03:32:10;;;;;;;16.48;5.65;;;;;;;24.68;50.10;101712.69;4993522;28;20042;-68
2022/08/22 03:34:36;;;;;;;13.73;4.88;;;;;;;24.57;49.98;101705.72;5007629;28;20042;-68
2022/08/22 03:37:22;;;;;;;14.27;5.68;;;;;;;24.51;50.05;101704.97;4992246;28;20113;-68
2022/08/22 03:39:58;;;;;;;13.30;5.00;;;;;;;24.47;50.47;101708.63;4991604;28;20042;-68
2022/08/22 03:42:42;;;;;;;15.32;4.80;;;;;;;24.43;50.66;101703.69;4991710;28;20125;-69
2022/08/22 03:45:32;;;;;;;13.52;5.03;;;;;;;24.32;51.42;101699.47;4991315;28;20062;-69
2022/08/22 03:48:22;;;;;;;15.47;5.27;;;;;;;24.37;50.54;101695.84;4991441;28;20111;-68
2022/08/22 03:50:55;;;;;;;17.10;5.43;;;;;;;24.21;51.13;101687.00;4991251;28;20829;-69
2022/08/22 03:53:59;;;;;;;9.25;5.10;;;;;;;24.02;52.03;101686.13;4991316;28;20049;-68
2022/08/22 03:56:27;;;;;;;13.55;5.07;;;;;;;24.13;50.92;101684.06;4991374;28;20034;-68
2022/08/22 03:59:04;;;;;;;13.18;5.53;;;;;;;23.89;52.01;101681.34;4991214;28;20034;-68
2022/08/22 04:02:08;;;;;;;12.13;5.30;;;;;;;24.24;51.09;101682.81;4990014;28;20032;-68
2022/08/22 04:04:48;;;;;;;17.10;6.28;;;;;;;24.32;50.97;101685.72;4990832;28;20041;-69
2022/08/22 04:07:30;;;;;;;14.13;6.47;;;;;;;23.79;51.96;101681.44;4993739;28;20026;-69
2022/08/22 04:10:26;;;;;;;11.73;5.70;;;;;;;24.19;50.79;101688.41;5005306;28;20061;-69
2022/08/22 04:13:33;;;;;;;16.92;5.68;;;;;;;24.20;51.12;101688.09;5006602;28;20038;-68
2022/08/22 04:16:23;;;;;;;16.08;5.60;;;;;;;24.22;50.41;101687.78;5009643;28;20050;-68
2022/08/22 04:19:11;;;;;;;17.73;6.00;;;;;;;24.21;50.82;101689.75;4991398;28;20054;-69
2022/08/22 04:21:39;;;;;;;19.20;5.32;;;;;;;24.22;50.95;101701.53;5008251;28;20053;-68
2022/08/22 04:24:23;;;;;;;11.63;4.78;;;;;;;24.16;50.87;101698.03;5010306;28;20042;-67
2022/08/22 04:26:58;;;;;;;11.75;5.65;;;;;;;24.22;50.56;101690.53;5010270;28;20042;-68
2022/08/22 04:29:51;;;;;;;9.63;5.68;;;;;;;24.18;50.83;101698.56;5010287;28;20034;-67
2022/08/22 04:32:19;;;;;;;16.23;5.82;;;;;;;23.74;51.78;101711.72;4999612;28;20085;-69
2022/08/22 04:35:17;;;;;;;14.05;6.43;;;;;;;23.57;52.18;101713.28;4990941;28;20122;-68
2022/08/22 04:37:50;;;;;;;17.23;6.15;;;;;;;23.60;52.14;101710.78;4911378;29;20131;-69
2022/08/22 04:40:30;;;;;;;11.07;5.72;;;;;;;23.44;52.89;101715.59;4911924;29;20052;-68
2022/08/22 04:43:07;;;;;;;12.32;5.55;;;;;;;23.70;52.19;101713.41;4911512;29;20048;-68
2022/08/22 04:45:42;;;;;;;21.10;6.18;;;;;;;23.51;52.33;101724.28;4911509;29;20040;-67
2022/08/22 04:48:25;;;;;;;12.50;6.07;;;;;;;23.72;51.96;101724.91;4911436;29;20429;-68
2022/08/22 04:51:04;;;;;;;14.50;6.05;;;;;;;23.83;51.94;101729.16;4911243;29;20372;-68
2022/08/22 04:53:48;;;;;;;15.02;5.97;;;;;;;23.80;51.94;101721.53;4911320;29;20525;-67
2022/08/22 04:56:20;;;;;;;17.88;6.18;;;;;;;23.76;51.99;101730.63;4911510;29;20047;-68
2022/08/22 04:58:49;;;;;;;16.15;6.82;;;;;;;23.61;52.15;101736.25;4911362;29;20080;-69
2022/08/22 05:01:37;;;;;;;10.95;5.35;;;;;;;23.71;52.25;101736.16;4911613;29;20168;-68
2022/08/22 05:04:27;;;;;;;12.93;5.93;;;;;;;23.58;52.33;101731.38;4875519;29;20064;-68
2022/08/22 05:06:59;;;;;;;10.75;5.70;;;;;;;23.84;52.06;101738.22;4877165;29;20052;-66
2022/08/22 05:09:29;;;;;;;15.05;6.18;;;;;;;23.79;51.96;101736.34;4877051;29;20045;-67
2022/08/22 05:11:59;;;;;;;;;;;;;;;24.05;51.75;101734.16;4878903;29;20052;-68
2022/08/22 05:14:35;;;;;;;15.95;5.60;;;;;;;24.14;51.18;101727.72;4931354;29;19926;-67
2022/08/22 05:17:03;;;;;;;15.68;6.90;;;;;;;24.12;51.57;101726.38;4933205;29;20044;-67
2022/08/22 05:19:33;;;;;;;11.65;5.20;;;;;;;24.09;51.51;101724.22;4917774;29;20515;-68
2022/08/22 05:22:00;;;;;;;13.27;5.50;;;;;;;23.78;52.26;101733.91;4933540;29;20126;-68
2022/08/22 05:24:36;;;;;;;16.75;6.10;;;;;;;24.02;51.75;101732.81;4933188;29;20056;-67
2022/08/22 05:27:10;;;;;;;14.57;5.53;;;;;;;23.70;52.44;101737.28;4933320;29;20052;-67
2022/08/22 05:29:39;;;;;;;19.17;6.20;;;;;;;23.72;52.36;101732.31;4933217;29;20125;-67
2022/08/22 05:32:09;;;;;;;15.95;5.88;;;;;;;23.78;52.35;101747.63;4933533;29;20043;-68
2022/08/22 05:34:41;;;;;;;17.98;6.20;;;;;;;24.18;51.09;101730.69;4933308;29;20080;-67
2022/08/22 05:37:23;;;;;;;12.20;5.10;;;;;;;24.19;51.81;101735.09;4933434;29;20032;-68
2022/08/22 05:39:55;;;;;;;13.20;4.80;;;;;;;24.21;51.19;101730.94;4933269;29;20480;-67
2022/08/22 05:42:28;;;;;;;13.20;5.57;;;;;;;24.45;50.96;101739.16;4995942;28;20053;-68
2022/08/22 05:44:54;;;;;;;17.67;5.93;;;;;;;24.43;50.72;101736.66;5022142;28;20026;-68
2022/08/22 05:47:31;;;;;;;13.50;5.68;;;;;;;24.40;50.65;101745.53;5021987;28;20504;-67
2022/08/22 05:50:03;;;;;;;13.25;5.70;;;;;;;24.17;50.97;101740.06;5023790;28;20033;-67
2022/08/22 05:52:59;;;;;;;14.15;4.75;;;;;;;24.17;51.61;101737.31;5027429;28;20065;-68
2022/08/22 05:55:42;;;;;;;13.00;5.00;;;;;;;24.48;50.71;101745.97;4992244;28;20046;-69
2022/08/22 05:58:17;;;;;;;15.43;5.85;;;;;;;24.35;50.36;101753.81;5002788;28;20490;-69
2022/08/22 06:00:47;;;;;;;13.50;4.65;;;;;;;24.50;50.44;101751.97;5002537;28;20037;-68
2022/08/22 06:03:46;;;;;;;15.10;6.00;;;;;;;24.45;50.37;101755.63;5001508;28;20042;-67
2022/08/22 06:06:16;;;;;;;12.10;4.70;;;;;;;24.54;50.50;101753.03;4911314;29;20052;-67
2022/08/22 06:08:52;;;;;;;13.88;5.10;;;;;;;24.36;50.54;101758.22;4913149;29;20159;-67
2022/08/22 06:11:39;;;;;;;9.38;4.45;;;;;;;24.48;50.76;101759.69;4897299;29;20036;-67
2022/08/22 06:14:41;;;;;;;12.18;4.45;;;;;;;24.59;50.74;101756.50;4913179;29;20044;-68
2022/08/22 06:17:15;;;;;;;14.18;5.10;;;;;;;24.79;49.94;101755.44;4874954;29;20522;-67
2022/08/22 06:19:46;;;;;;;12.60;4.95;;;;;;;24.56;50.57;101762.63;4866501;29;20096;-69
2022/08/22 06:22:23;;;;;;;16.90;5.05;;;;;;;24.57;50.77;101767.00;4874980;29;20056;-68
2022/08/22 06:24:50;;;;;;;11.32;4.70;;;;;;;24.57;50.38;101771.69;4870545;29;20061;-68
2022/08/22 06:27:21;;;;;;;18.85;4.55;;;;;;;24.73;50.27;101768.44;4875803;29;20056;-68
2022/08/22 06:29:53;;;;;;;19.35;5.82;;;;;;;24.23;51.68;101777.34;4875850;29;20044;-68
2022/08/22 06:32:27;;;;;;;12.10;4.80;;;;;;;24.49;51.29;101773.13;4875646;29;20077;-67
2022/08/22 06:34:58;;;;;;;18.70;4.63;;;;;;;24.77;50.42;101768.66;4874220;29;20036;-67
2022/08/22 06:37:31;;;;;;;19.98;5.18;;;;;;;24.78;50.56;101773.06;4875427;29;20513;-68
2022/08/22 06:39:59;;;;;;;13.10;5.07;;;;;;;24.94;50.26;101777.22;4860737;29;20087;-67
2022/08/22 06:42:30;;;;;;;10.13;4.00;;;;;;;25.13;49.80;101773.34;4888333;29;20071;-67
2022/08/22 06:45:08;;;;;;;11.15;4.10;;;;;;;25.09;49.87;101777.81;4931877;29;20339;-68
2022/08/22 06:47:53;;;;;;;14.70;4.45;;;;;;;25.14;49.38;101782.38;4931899;29;20059;-67
2022/08/22 06:50:37;;;;;;;20.55;4.57;;;;;;;25.01;50.13;101781.22;4931531;29;20389;-65
2022/08/22 06:53:07;;;;;;;10.00;3.92;;;;;;;25.15;49.37;101778.53;4946208;28;20046;-67
2022/08/22 06:55:37;;;;;;;14.13;4.22;;;;;;;25.10;49.83;101778.63;4972683;28;20034;-69
2022/08/22 06:58:17;;;;;;;17.17;4.68;;;;;;;24.98;50.24;101789.25;4973388;28;20062;-66
2022/08/22 07:00:45;;;;;;;16.30;4.77;;;;;;;25.07;49.64;101790.22;4972725;28;20118;-69
2022/08/22 07:03:25;;;;;;;11.48;4.78;;;;;;;25.09;50.03;101793.47;4995621;28;20442;-67
2022/08/22 07:05:54;;;;;;;13.70;5.33;;;;;;;25.23;49.53;101786.94;4980588;28;20252;-67
2022/08/22 07:08:21;;;;;;;12.02;4.75;;;;;;;25.14;49.53;101785.13;4991381;28;20042;-67
2022/08/22 07:10:56;;;;;;;11.98;4.35;;;;;;;25.30;49.70;101777.47;4991819;28;20030;-68
2022/08/22 07:13:24;;;;;;;11.90;4.55;;;;;;;25.17;50.09;101774.38;4973902;28;20130;-67
2022/08/22 07:16:00;;;;;;;17.27;4.55;;;;;;;25.07;50.38;101779.22;4982807;28;20022;-68
2022/08/22 07:18:28;;;;;;;15.43;3.90;;;;;;;25.44;49.43;101770.91;4984407;28;20039;-67
2022/08/22 07:20:58;;;;;;;12.52;4.47;;;;;;;25.47;49.41;101772.25;4987145;28;20041;-67
2022/08/22 07:23:39;;;;;;;13.87;5.17;;;;;;;25.63;49.26;101771.66;4990869;28;20046;-68
2022/08/22 07:26:27;;;;;;;14.25;4.80;;;;;;;25.85;48.52;101773.75;5011313;28;20494;-68
2022/08/22 07:29:01;;;;;;;12.02;4.07;;;;;;;25.96;48.62;101775.19;5011059;28;20087;-66
2022/08/22 07:31:36;;;;;;;9.77;4.53;;;;;;;26.00;48.43;101774.25;5004822;28;20044;-67
2022/08/22 07:34:55;;;;;;;16.30;4.22;;;;;;;25.80;49.01;101771.09;5015552;28;20072;-67
2022/08/22 07:37:50;;;;;;;16.45;3.80;;;;;;;25.86;48.78;101776.22;4893051;29;20100;-68
2022/08/22 07:40:40;;;;;;;11.55;3.47;;;;;;;26.14;48.17;101782.59;4893623;29;20056;-67
2022/08/22 07:43:24;;;;;;;12.77;4.13;;;;;;;26.06;48.40;101784.09;4892862;29;20079;-66
2022/08/22 07:45:54;;;;;;;11.57;3.55;;;;;;;26.41;47.84;101785.31;4893571;29;20455;-66
2022/08/22 07:48:48;;;;;;;8.18;3.42;;;;;;;26.56;47.66;101776.72;4893514;29;20044;-66
2022/08/22 07:51:16;;;;;;;9.70;3.42;;;;;;;26.47;47.51;101772.22;4886949;29;20502;-67
2022/08/22 07:53:45;;;;;;;17.50;3.80;;;;;;;26.54;47.32;101772.63;4890437;29;20091;-66
2022/08/22 07:56:22;;;;;;;13.27;3.67;;;;;;;26.60;46.85;101777.72;4882380;29;20077;-67
2022/08/22 07:58:52;;;;;;;12.85;3.38;;;;;;;26.46;46.93;101787.13;4883833;29;20125;-67
2022/08/22 08:01:20;;;;;;;15.43;3.60;;;;;;;26.56;46.72;101776.72;4882257;29;20164;-73
2022/08/22 08:03:58;;;;;;;22.83;3.83;;;;;;;26.80;45.84;101774.53;4883821;29;20428;-74
2022/08/22 08:06:26;;;;;;;14.18;3.47;;;;;;;26.70;45.97;101766.50;4885861;29;20040;-77
2022/08/22 08:08:54;;;;;;;18.98;3.15;;;;;;;26.91;45.22;101770.41;4884128;29;20561;-74
2022/08/22 08:11:22;;;;;;;9.15;2.80;;;;;;;26.85;45.80;101770.84;4952386;28;20064;-74
2022/08/22 08:13:53;;;;;;;9.88;3.33;;;;;;;26.97;45.34;101773.84;5008693;28;20041;-74
2022/08/22 08:16:24;;;;;;;11.98;3.45;;;;;;;26.97;44.79;101764.78;4995864;28;20057;-74
2022/08/22 08:18:51;;;;;;;;;;;;;;;26.93;45.29;101767.34;5020664;28;20112;-74
2022/08/22 08:21:42;;;;;;;9.32;2.38;;;;;;;26.55;45.78;101755.78;5016423;28;19975;-75
2022/08/22 08:24:13;;;;;;;11.25;3.40;;;;;;;26.61;46.10;101756.50;5001380;28;20050;-74
2022/08/22 08:28:32;;;;;;;13.48;2.88;;;;;;;26.41;46.72;101746.72;5017086;28;20573;-74
2022/08/22 08:29:29;;;;;;;10.05;3.08;;;;;;;26.26;47.04;101747.03;5020053;28;20034;-74
2022/08/22 08:31:55;;;;;;;18.55;3.45;;;;;;;26.87;44.98;101741.81;5019140;28;20045;-75
2022/08/22 08:34:23;;;;;;;10.05;2.92;;;;;;;27.07;44.55;101746.03;5020656;28;20097;-74
2022/08/22 08:37:15;;;;;;;10.80;2.92;;;;;;;26.76;44.98;101739.59;5020775;28;20038;-67
2022/08/22 08:39:49;;;;;;;14.48;3.35;;;;;;;27.01;44.71;101736.22;5020834;28;20044;-67
2022/08/22 08:45:52;;;;;;;10.90;2.70;;;;;;;27.11;44.57;101727.72;5021853;28;20045;-68
2022/08/22 08:48:27;;;;;;;16.88;3.88;;;;;;;26.58;45.45;101735.03;4994616;28;20399;-67
2022/08/22 08:51:10;;;;;;;11.40;3.03;;;;;;;26.64;44.84;101726.34;4994505;28;20034;-67
2022/08/22 08:53:51;;;;;;;9.32;2.97;;;;;;;27.38;43.35;101732.31;4994715;28;20047;-67
2022/08/22 08:56:35;;;;;;;16.65;3.63;;;;;;;27.44;43.28;101731.84;4994488;28;20046;-67
2022/08/22 08:59:31;;;;;;;10.65;2.97;;;;;;;27.48;42.61;101727.31;4994308;28;20042;-66
2022/08/22 09:02:44;;;;;;;10.55;2.80;;;;;;;27.67;42.94;101733.44;5004972;28;20042;-67
2022/08/22 09:05:31;;;;;;;12.65;2.63;;;;;;;27.60;41.95;101726.72;5021365;28;20084;-67
2022/08/22 09:08:24;;;;;;;9.00;2.88;;;;;;;27.89;42.08;101721.50;5024199;28;20037;-67
2022/08/22 09:11:09;;;;;;;12.15;2.63;;;;;;;27.66;41.67;101718.00;5023157;28;20201;-67
2022/08/22 09:14:12;;;;;;;8.02;2.40;;;;;;;27.81;42.00;101714.78;5021662;28;20044;-66
2022/08/22 09:16:56;;;;;;;9.35;2.28;;;;;;;28.27;41.28;101714.31;5022008;28;20041;-67
2022/08/22 09:19:40;;;;;;;6.68;1.90;;;;;;;28.30;40.43;101705.38;5020551;28;20037;-67
2022/08/22 09:22:30;;;;;;;6.95;2.03;;;;;;;28.10;40.97;101706.00;5021955;28;20042;-67
2022/08/22 09:25:05;;;;;;;;;;;;;;;28.38;40.15;101706.53;4928140;29;20524;-67
2022/08/22 09:27:37;;;;;;;10.90;2.35;;;;;;;28.37;40.00;101715.94;4940964;29;20561;-66
2022/08/22 09:30:12;;;;;;;11.90;2.45;;;;;;;28.48;40.31;101711.75;4939041;29;20050;-68
2022/08/22 09:33:06;;;;;;;12.18;2.97;;;;;;;28.77;39.43;101720.25;4943447;29;20130;-68
2022/08/22 09:35:59;;;;;;;8.32;2.25;;;;;;;28.38;38.11;101709.28;4867942;29;20044;-67
2022/08/22 09:38:33;;;;;;;6.30;1.83;;;;;;;28.80;37.53;101716.81;4867006;29;20055;-69
2022/08/22 09:41:04;;;;;;;7.20;1.40;;;;;;;29.10;35.98;101712.22;4858211;29;20045;-74
2022/08/22 09:43:49;;;;;;;6.72;1.63;;;;;;;28.88;36.63;101716.00;4858196;29;20053;-73
2022/08/22 09:46:31;;;;;;;14.38;2.70;;;;;;;29.14;36.14;101714.06;4858762;29;20108;-76
2022/08/22 09:49:08;;;;;;;11.55;1.75;;;;;;;29.14;35.62;101713.22;4858584;29;20049;-75
2022/08/22 09:51:39;;;;;;;6.30;1.58;;;;;;;29.30;35.30;101708.81;4858279;29;20525;-74
2022/08/22 09:54:05;;;;;;;17.02;2.42;;;;;;;29.27;35.61;101706.69;4857782;29;20052;-74
2022/08/22 09:56:38;;;;;;;7.50;2.00;;;;;;;28.27;35.73;101707.97;4857928;29;20049;-74
2022/08/22 09:59:31;;;;;;;10.18;1.63;;;;;;;28.71;35.25;101710.47;4874466;29;20045;-74
2022/08/22 10:02:05;;;;;;;6.50;1.52;;;;;;;29.46;34.53;101702.38;4892914;29;20044;-74
2022/08/22 10:04:42;;;;;;;6.90;1.75;;;;;;;29.01;34.18;101697.59;4913960;29;20051;-74
2022/08/22 10:07:36;;;;;;;5.28;1.45;;;;;;;29.50;33.39;101705.31;4914104;29;20036;-74
2022/08/22 10:10:20;;;;;;;8.52;2.15;;;;;;;28.86;34.36;101707.22;4913843;29;20502;-66
2022/08/22 10:13:08;;;;;;;5.78;1.52;;;;;;;29.95;32.81;101706.47;4963093;28;20069;-66
2022/08/22 10:15:45;;;;;;;9.63;1.48;;;;;;;30.20;32.43;101702.72;4990260;28;20441;-66
2022/08/22 10:18:36;;;;;;;6.78;1.42;;;;;;;30.39;32.33;101704.25;5001373;28;20035;-65
2022/08/22 10:21:14;;;;;;;6.65;1.60;;;;;;;30.72;32.21;101703.16;5001253;28;20045;-66
2022/08/22 10:24:00;;;;;;;9.18;1.42;;;;;;;31.17;31.39;101706.03;5003514;28;20061;-66
2022/08/22 10:26:25;;;;;;;7.45;1.52;;;;;;;31.12;31.29;101697.91;5022075;28;20058;-66
2022/08/22 10:29:04;;;;;;;6.30;1.33;;;;;;;31.38;31.66;101704.03;5018020;28;20116;-68
2022/08/22 10:31:38;;;;;;;8.52;1.63;;;;;;;31.28;31.07;101696.09;5020342;28;20021;-66
2022/08/22 10:34:13;;;;;;;12.00;1.70;;;;;;;30.91;31.23;101691.59;5023053;28;20125;-66
2022/08/22 10:37:13;;;;;;;5.22;1.35;;;;;;;30.97;31.43;101693.00;5020174;28;20033;-65
2022/08/22 10:39:57;;;;;;;;;;;;;;;30.81;31.83;101689.19;4950038;29;20043;-67
2022/08/22 10:42:22;;;;;;;8.25;1.85;;;;;;;30.51;32.10;101682.94;4950710;29;20330;-66
2022/08/22 10:45:00;;;;;;;9.25;1.55;;;;;;;30.35;32.14;101681.91;4950671;29;20134;-67
2022/08/22 10:47:37;;;;;;;11.90;1.85;;;;;;;30.40;31.64;101678.94;4950663;29;20082;-67
2022/08/22 10:50:12;;;;;;;6.10;2.22;;;;;;;31.34;31.73;101680.00;4948803;29;20086;-66
2022/08/22 10:53:33;;;;;;;8.18;1.75;;;;;;;31.29;31.80;101667.19;4948767;29;20459;-65
2022/08/22 10:56:08;;;;;;;8.95;1.83;;;;;;;31.87;30.64;101679.84;4912763;29;20032;-66
2022/08/22 10:58:40;;;;;;;6.78;1.55;;;;;;;31.75;29.94;101675.09;4931726;29;20047;-67
2022/08/22 11:01:10;;;;;;;11.00;1.60;;;;;;;31.78;30.26;101671.63;4931462;29;20054;-66
2022/08/22 11:03:41;;;;;;;7.03;2.08;;;;;;;30.93;31.84;101675.41;4931666;29;20039;-66
2022/08/22 11:06:22;;;;;;;7.30;1.63;;;;;;;31.22;30.44;101672.47;4931514;29;20039;-66
2022/08/22 11:08:50;;;;;;;15.32;1.90;;;;;;;31.30;31.95;101663.22;4931299;29;20047;-65
2022/08/22 11:11:29;;;;;;;12.02;1.75;;;;;;;31.09;31.99;101659.72;4931450;29;20050;-65
2022/08/22 11:14:11;;;;;;;10.82;1.80;;;;;;;30.73;32.35;101662.34;4931525;29;20059;-66
2022/08/22 11:16:57;;;;;;;6.22;1.70;;;;;;;31.11;31.87;101652.66;4973835;28;20034;-65
2022/08/22 11:19:43;;;;;;;8.90;2.63;;;;;;;30.66;32.43;101662.09;4989043;28;20042;-66
2022/08/22 11:22:29;;;;;;;12.30;1.95;;;;;;;30.84;33.11;101660.81;4989375;28;20037;-66
2022/08/22 11:25:16;;;;;;;7.28;2.35;;;;;;;31.50;32.26;101651.25;4988887;28;20234;-66
2022/08/22 11:28:08;;;;;;;6.97;1.65;;;;;;;31.38;32.42;101650.41;4989148;28;20042;-67
2022/08/22 11:30:53;;;;;;;9.25;2.05;;;;;;;31.31;31.67;101650.16;4989100;28;20045;-66
2022/08/22 11:33:45;;;;;;;8.25;1.67;;;;;;;31.82;31.57;101641.16;5009173;28;20033;-67
2022/08/22 11:36:23;;;;;;;9.38;2.67;;;;;;;31.67;31.63;101650.19;5011045;28;20041;-65
2022/08/22 11:38:58;;;;;;;7.20;1.75;;;;;;;31.66;31.77;101643.84;5010847;28;20038;-66
2022/08/22 11:41:43;;;;;;;9.20;2.67;;;;;;;32.08;31.80;101636.03;5011217;28;20062;-66
2022/08/22 11:44:21;;;;;;;8.90;2.10;;;;;;;32.18;30.72;101641.13;5011166;28;20128;-66
2022/08/22 11:46:50;;;;;;;8.13;2.22;;;;;;;32.09;29.56;101648.81;4996003;28;20042;-65
2022/08/22 11:49:37;;;;;;;7.72;2.28;;;;;;;31.68;30.78;101646.28;4993287;28;20084;-66
2022/08/22 11:52:06;;;;;;;8.07;1.88;;;;;;;32.49;30.33;101637.72;4988166;28;20470;-67
2022/08/22 11:55:20;;;;;;;6.93;2.33;;;;;;;32.32;30.30;101641.56;4988504;28;20450;-66
2022/08/22 11:57:51;;;;;;;8.50;1.67;;;;;;;31.80;31.51;101646.28;4908125;29;20048;-66
2022/08/22 12:00:24;;;;;;;12.13;1.60;;;;;;;32.66;29.81;101635.44;4907949;29;20076;-66
2022/08/22 12:02:52;;;;;;;8.65;1.88;;;;;;;32.32;31.08;101636.00;4909084;29;20048;-66
2022/08/22 12:05:20;;;;;;;8.23;1.58;;;;;;;32.63;30.26;101635.31;4908543;29;20048;-67
2022/08/22 12:08:02;;;;;;;11.82;1.70;;;;;;;32.96;29.11;101632.28;4907923;29;20583;-66
2022/08/22 12:10:32;;;;;;;12.27;2.08;;;;;;;33.13;28.91;101629.16;4908463;29;20501;-66
2022/08/22 12:13:15;;;;;;;10.40;2.20;;;;;;;33.37;28.54;101631.78;4908369;29;20060;-65
2022/08/22 12:16:01;;;;;;;7.28;2.03;;;;;;;33.49;29.10;101632.50;4911729;29;20366;-66
2022/08/22 12:18:32;;;;;;;7.50;2.25;;;;;;;32.90;29.39;101628.94;4912457;29;20063;-67
2022/08/22 12:21:19;;;;;;;8.52;2.20;;;;;;;33.30;29.05;101631.59;4911724;29;20110;-66